• Join FlightAware (Why Join?)
  • Login
  • US Flag 
09:11AM EDT


 

Airport Tracker/Info


-or-


 

Live Flight TrackerFlight Track Log ✈ CTL61 ✈ 23-Apr-2013 ✈ KBLF - KCRW

Flight Track Log - Related Links

Times and Time Zones

All times are in EDT time to prevent confusion due to time zone crossing. See the CTL61 flight status page for this flight to view local times or setup timezone preferences in your user account.

Time Position Orientation Groundspeed Altitude Reporting Facility
EDT Latitude Longitude Course Direction KTS MPH feet Rate Location/Type
11:25PM 37.3539 -81.2622 343° North 142 163 5,500  Level Indianapolis Center
11:26PM 37.3914 -81.2769 343° North 145 167 6,000 240 Climbing Indianapolis Center
11:27PM 37.4369 -81.2953 342° North 170 196 6,000  Level Indianapolis Center
11:28PM 37.4831 -81.3092 347° North 174 200 6,000  Level Indianapolis Center
11:29PM 37.5386 -81.3308 343° North 177 204 6,100  Climbing Indianapolis Center
11:30PM 37.5847 -81.3478 344° North 178 205 6,100  Level Indianapolis Center
11:31PM 37.6317 -81.3628 346° North 178 205 6,100  Level Indianapolis Center
11:32PM 37.6783 -81.3772 346° North 178 205 6,100  Level Indianapolis Center
11:33PM 37.7342 -81.3944 346° North 176 203 6,100  Level Indianapolis Center
11:34PM 37.7808 -81.4078 347° North 177 204 6,100  Level Indianapolis Center
11:35PM 37.8275 -81.4239 345° North 178 205 6,100 -60 Level Indianapolis Center
11:36PM 37.8819 -81.4397 347° North 185 213 6,000 -60 Descending Indianapolis Center
11:37PM 37.9322 -81.4550 347° North 186 214 6,000  Level Indianapolis Center
11:38PM 37.9800 -81.4700 346° North 180 207 6,000 -120 Level Indianapolis Center
11:39PM 38.0286 -81.4844 347° North 178 205 5,800 -360 Descending Indianapolis Center
11:40PM 38.0803 -81.5014 346° North 189 217 5,300 -480 Descending Indianapolis Center
11:41PM 38.1344 -81.5186 346° North 197 227 4,900 -540 Descending Indianapolis Center
11:42PM 38.1883 -81.5356 346° North 199 229 4,300 -600 Descending Indianapolis Center
11:43PM 38.2389 -81.5536 344° North 192 221 3,700 -660 Descending Indianapolis Center
11:44PM 38.2869 -81.5700 345° North 185 213 3,000 -780 Descending Indianapolis Center
11:45PM 38.3361 -81.5856 346° North 182 209 2,200 -600 Descending Indianapolis Center
11:46PM 38.3697 -81.5511 39° Northeast 169 194 1,800 -540 Descending Indianapolis Center
11:47PM 38.3900 -81.5728 320° Northwest 135 155 1,200 -600 Descending Indianapolis Center
11:49PM 38.3667 -81.5833 218° Southwest  Level FlightAware Approximate